Terminal Aerodrome Forecast
Issued by NWS

Home | Current Version | Previous Version | Text Only | Print | Product List | Glossary On
Versions: 1 2 3 4 5 6 7 8 9 10 11 12 13 14 15 16 17 18 19 20 21 22 23 24
179
FTUS46 KMTR 140538
TAFSJC
TAF
KSJC 140538Z 1406/1506 VRB03KT P6SM SCT100
     FM140800 14004KT P6SM SCT010 BKN150
     FM141400 15006KT P6SM SCT015 BKN150
     FM142100 32012G18KT P6SM BKN014 BKN120
     FM150400 34005KT P6SM BKN012 BKN100=

USA.gov is the U.S. government's official web portal to all federal, state and local government web resources and services.